createdAt,value
2019-01-06T00:02:19.298Z,6.03
2019-01-06T00:05:18.216Z,2.63
2019-01-06T00:08:17.023Z,3.20
2019-01-06T00:11:24.843Z,2.00
2019-01-06T00:14:15.727Z,3.67
2019-01-06T00:17:14.418Z,3.37
2019-01-06T00:19:58.905Z,2.93
2019-01-06T00:22:47.050Z,6.33
2019-01-06T00:25:36.781Z,4.03
2019-01-06T00:28:25.726Z,2.83
2019-01-06T00:31:15.307Z,3.17
2019-01-06T00:34:23.179Z,2.73
2019-01-06T00:37:10.808Z,3.50
2019-01-06T00:40:06.652Z,3.77
2019-01-06T00:42:54.967Z,2.03
2019-01-06T00:45:50.761Z,2.73
2019-01-06T00:48:43.042Z,4.73
2019-01-06T00:51:50.454Z,5.97
2019-01-06T00:54:38.569Z,5.83
2019-01-06T00:57:28.404Z,3.40
2019-01-06T01:00:16.964Z,2.67
2019-01-06T01:03:05.564Z,1.63
2019-01-06T01:06:13.990Z,5.23
2019-01-06T01:09:19.273Z,4.17
2019-01-06T01:12:11.783Z,4.97
2019-01-06T01:15:08.813Z,4.53
2019-01-06T01:18:02.642Z,1.73
2019-01-06T01:20:50.007Z,2.10
2019-01-06T01:23:39.845Z,1.40
2019-01-06T01:26:31.718Z,2.07
2019-01-06T01:29:30.845Z,1.10
2019-01-06T01:32:32.707Z,1.03
2019-01-06T01:35:22.367Z,2.27
2019-01-06T01:38:27.263Z,2.77
2019-01-06T01:41:15.508Z,5.50
2019-01-06T01:44:10.853Z,3.67
2019-01-06T01:47:00.619Z,3.03
2019-01-06T01:49:51.253Z,1.90
2019-01-06T01:52:43.741Z,2.33
2019-01-06T01:55:36.368Z,1.40
2019-01-06T01:58:36.971Z,1.60
2019-01-06T02:01:32.670Z,3.27
2019-01-06T02:04:20.768Z,3.17
2019-01-06T02:07:13.509Z,5.50
2019-01-06T02:10:02.835Z,2.40
2019-01-06T02:12:51.528Z,3.20
2019-01-06T02:15:54.474Z,2.53
2019-01-06T02:18:42.933Z,2.70
2019-01-06T02:21:35.194Z,1.97
2019-01-06T02:24:23.526Z,1.30
2019-01-06T02:27:31.384Z,1.00
2019-01-06T02:30:24.136Z,0.50
2019-01-06T02:33:20.103Z,1.83
2019-01-06T02:36:28.012Z,2.73
2019-01-06T02:39:16.311Z,1.37
2019-01-06T02:42:06.151Z,0.57
2019-01-06T02:44:51.919Z,0.63
2019-01-06T02:47:39.623Z,1.03
2019-01-06T02:50:35.255Z,2.53
2019-01-06T02:53:27.640Z,2.97
2019-01-06T02:56:20.125Z,1.80
2019-01-06T02:59:09.957Z,0.90
2019-01-06T03:01:58.601Z,2.87
2019-01-06T03:04:48.353Z,0.73
2019-01-06T03:07:38.069Z,1.67
2019-01-06T03:10:26.296Z,4.20
2019-01-06T03:13:14.701Z,3.50
2019-01-06T03:16:12.039Z,3.23
2019-01-06T03:19:04.609Z,3.30
2019-01-06T03:22:07.750Z,2.93
2019-01-06T03:25:13.736Z,2.30
2019-01-06T03:28:12.574Z,3.70
2019-01-06T03:31:11.345Z,3.13
2019-01-06T03:33:57.065Z,3.47
2019-01-06T03:36:55.897Z,1.00
2019-01-06T03:39:57.419Z,1.97
2019-01-06T03:42:51.771Z,2.13
2019-01-06T03:45:44.876Z,1.77
2019-01-06T03:48:34.970Z,3.30
2019-01-06T03:51:20.537Z,3.67
2019-01-06T03:54:19.652Z,2.90
2019-01-06T03:57:21.505Z,2.17
2019-01-06T04:00:10.165Z,1.83
2019-01-06T04:02:57.526Z,1.83
2019-01-06T04:05:39.166Z,2.90
2019-01-06T04:08:34.870Z,1.67
2019-01-06T04:11:30.618Z,1.40
2019-01-06T04:14:26.250Z,3.83
2019-01-06T04:17:14.589Z,1.53
2019-01-06T04:20:07.369Z,1.20
2019-01-06T04:22:57.014Z,4.97
2019-01-06T04:26:01.786Z,2.30
2019-01-06T04:28:54.254Z,1.77
2019-01-06T04:31:50.008Z,5.00
2019-01-06T04:34:48.773Z,1.67
2019-01-06T04:37:41.518Z,4.90
2019-01-06T04:40:34.062Z,3.47
2019-01-06T04:43:20.126Z,1.83
2019-01-06T04:46:08.268Z,5.67
2019-01-06T04:48:56.702Z,0.93
2019-01-06T04:51:44.697Z,1.13
2019-01-06T04:54:43.325Z,0.70
2019-01-06T04:57:31.579Z,1.50
2019-01-06T05:00:27.884Z,3.53
2019-01-06T05:03:26.609Z,1.83
2019-01-06T05:06:15.041Z,2.67
2019-01-06T05:09:03.244Z,2.57
2019-01-06T05:11:53.313Z,0.60
2019-01-06T05:14:41.975Z,3.33
2019-01-06T05:17:33.565Z,1.27
2019-01-06T05:20:22.304Z,0.97
2019-01-06T05:23:21.446Z,2.50
2019-01-06T05:26:11.066Z,0.50
2019-01-06T05:29:06.661Z,1.80
2019-01-06T05:31:55.393Z,1.73
2019-01-06T05:34:40.827Z,3.00
2019-01-06T05:37:30.471Z,2.57
2019-01-06T05:40:26.121Z,3.63
2019-01-06T05:43:17.909Z,2.10
2019-01-06T05:46:06.378Z,2.43
2019-01-06T05:48:54.954Z,2.00
2019-01-06T05:51:47.623Z,1.93
2019-01-06T05:54:35.747Z,1.87
2019-01-06T05:57:28.324Z,3.87
2019-01-06T06:00:28.178Z,2.33
2019-01-06T06:03:23.965Z,1.70
2019-01-06T06:06:22.498Z,3.53
2019-01-06T06:09:11.792Z,3.17
2019-01-06T06:12:16.658Z,2.23
2019-01-06T06:15:09.133Z,3.17
2019-01-06T06:18:05.172Z,3.63
2019-01-06T06:20:43.571Z,2.20
2019-01-06T06:23:31.747Z,2.40
2019-01-06T06:26:27.096Z,0.57
2019-01-06T06:29:18.534Z,10.47
2019-01-06T06:32:06.768Z,1.47
2019-01-06T06:34:55.075Z,3.10
2019-01-06T06:37:57.862Z,32.27
2019-01-06T06:40:38.997Z,8.07
2019-01-06T06:43:28.305Z,5.07
2019-01-06T06:46:21.305Z,4.20
2019-01-06T06:49:09.968Z,2.20
2019-01-06T06:52:05.659Z,0.77
2019-01-06T06:55:04.031Z,2.17
2019-01-06T06:58:26.323Z,2.53
2019-01-06T07:01:29.760Z,2.57
2019-01-06T07:04:22.220Z,2.47
2019-01-06T07:07:14.951Z,0.57
2019-01-06T07:10:05.669Z,0.87
2019-01-06T07:12:58.458Z,1.50
2019-01-06T07:15:54.184Z,2.60
2019-01-06T07:18:50.754Z,2.87
2019-01-06T07:21:47.774Z,2.73
2019-01-06T07:24:36.297Z,2.70
2019-01-06T07:27:29.150Z,3.60
2019-01-06T07:30:33.967Z,1.30
2019-01-06T07:33:22.047Z,4.53
2019-01-06T07:36:29.814Z,2.57
2019-01-06T07:39:18.164Z,3.50
2019-01-06T07:42:15.005Z,2.80
2019-01-06T07:45:04.864Z,2.23
2019-01-06T07:47:57.245Z,2.80
2019-01-06T07:50:45.612Z,1.20
2019-01-06T07:53:33.998Z,2.37
2019-01-06T07:56:42.754Z,2.87
2019-01-06T07:59:21.392Z,2.33
2019-01-06T08:02:13.961Z,2.20
2019-01-06T08:05:09.480Z,1.50
2019-01-06T08:07:57.560Z,2.03
2019-01-06T08:10:47.252Z,1.40
2019-01-06T08:13:36.831Z,1.37
2019-01-06T08:16:25.145Z,2.30
2019-01-06T08:19:13.617Z,1.77
2019-01-06T08:22:12.286Z,1.47
2019-01-06T08:25:16.838Z,1.50
2019-01-06T08:28:09.520Z,1.33
2019-01-06T08:31:00.225Z,1.57
2019-01-06T08:33:51.933Z,2.57
2019-01-06T08:36:40.289Z,1.93
2019-01-06T08:39:47.630Z,2.47
2019-01-06T08:42:47.108Z,2.47
2019-01-06T08:45:35.457Z,1.73
2019-01-06T08:48:37.076Z,1.13
2019-01-06T08:51:35.935Z,3.40
2019-01-06T08:54:30.057Z,3.97
2019-01-06T08:57:23.899Z,0.70
2019-01-06T09:00:16.676Z,1.43
2019-01-06T09:03:05.192Z,4.37
2019-01-06T09:06:06.684Z,2.23
2019-01-06T09:08:59.521Z,1.83
2019-01-06T09:11:47.828Z,2.20
2019-01-06T09:14:56.075Z,2.60
2019-01-06T09:17:52.995Z,2.87
2019-01-06T09:20:45.940Z,1.87
2019-01-06T09:23:42.052Z,1.93
2019-01-06T09:26:30.716Z,1.70
2019-01-06T09:29:32.747Z,1.60
2019-01-06T09:32:22.728Z,1.87
2019-01-06T09:35:12.488Z,1.47
2019-01-06T09:38:01.087Z,1.87
2019-01-06T09:40:51.130Z,4.07
2019-01-06T09:43:47.985Z,2.77
2019-01-06T09:47:01.285Z,2.20
2019-01-06T09:50:01.894Z,2.80
2019-01-06T09:52:51.547Z,3.83
2019-01-06T09:55:53.733Z,2.40
2019-01-06T09:58:53.383Z,3.10
2019-01-06T10:01:41.774Z,3.73
2019-01-06T10:04:35.152Z,8.27
2019-01-06T10:07:23.972Z,8.43
2019-01-06T10:10:12.617Z,7.23
2019-01-06T10:13:02.730Z,5.30
2019-01-06T10:16:10.775Z,1.87
2019-01-06T10:18:59.058Z,5.27
2019-01-06T10:21:48.988Z,11.47
2019-01-06T10:24:37.114Z,17.60
2019-01-06T10:27:27.130Z,28.33
2019-01-06T10:30:26.554Z,110.20
2019-01-06T10:33:28.539Z,33.50
2019-01-06T10:36:14.950Z,25.87
2019-01-06T10:39:04.063Z,10.43
2019-01-06T10:41:54.395Z,4.27
2019-01-06T10:44:43.194Z,5.53
2019-01-06T10:47:42.688Z,3.90
2019-01-06T10:50:31.442Z,3.43
2019-01-06T10:53:20.275Z,3.83
2019-01-06T10:56:13.112Z,3.57
2019-01-06T10:59:12.348Z,5.20
2019-01-06T11:02:05.381Z,4.27
2019-01-06T11:05:13.736Z,3.27
2019-01-06T11:08:13.002Z,6.70
2019-01-06T11:11:03.057Z,4.83
2019-01-06T11:13:53.143Z,8.63
2019-01-06T11:16:42.861Z,4.23
2019-01-06T11:19:33.224Z,5.27
2019-01-06T11:22:41.906Z,5.60
2019-01-06T11:25:34.866Z,12.47
2019-01-06T11:28:23.200Z,7.73
2019-01-06T11:31:19.067Z,13.23
2019-01-06T11:34:27.310Z,11.30
2019-01-06T11:37:29.431Z,4.17
2019-01-06T11:40:13.050Z,3.30
2019-01-06T11:43:03.866Z,4.17
2019-01-06T11:45:52.414Z,4.40
2019-01-06T11:48:48.575Z,4.30
2019-01-06T11:51:41.538Z,5.43
2019-01-06T11:54:43.847Z,4.83
2019-01-06T11:57:32.806Z,3.60
2019-01-06T12:00:23.019Z,4.20
2019-01-06T12:03:25.389Z,3.00
2019-01-06T12:06:13.745Z,5.03
2019-01-06T12:09:02.165Z,8.83
2019-01-06T12:11:52.445Z,15.83
2019-01-06T12:14:54.543Z,7.43
2019-01-06T12:17:57.246Z,8.87
2019-01-06T12:21:05.455Z,7.10
2019-01-06T12:24:04.568Z,5.43
2019-01-06T12:27:09.744Z,16.07
2019-01-06T12:30:02.516Z,12.60
2019-01-06T12:32:51.510Z,8.77
2019-01-06T12:35:43.054Z,5.77
2019-01-06T12:38:39.004Z,9.37
2019-01-06T12:41:27.623Z,8.53
2019-01-06T12:44:20.788Z,16.50
2019-01-06T12:47:09.497Z,20.70
2019-01-06T12:50:02.398Z,12.67
2019-01-06T12:52:55.504Z,14.27
2019-01-06T12:55:45.292Z,14.67
2019-01-06T12:58:41.004Z,11.43
2019-01-06T13:01:33.961Z,13.23
2019-01-06T13:04:22.914Z,10.77
2019-01-06T13:07:19.229Z,10.00
2019-01-06T13:10:06.547Z,10.10
2019-01-06T13:13:12.206Z,9.67
2019-01-06T13:16:00.615Z,12.30
2019-01-06T13:18:49.302Z,13.10
2019-01-06T13:21:38.281Z,11.27
2019-01-06T13:24:31.313Z,7.87
2019-01-06T13:27:27.453Z,11.53
2019-01-06T13:30:26.748Z,12.00
2019-01-06T13:33:22.737Z,9.23
2019-01-06T13:36:29.151Z,11.63
2019-01-06T13:39:19.154Z,10.50
2019-01-06T13:42:12.474Z,11.77
2019-01-06T13:45:03.141Z,9.17
2019-01-06T13:48:11.823Z,8.57
2019-01-06T13:51:14.329Z,10.93
2019-01-06T13:54:08.166Z,13.27
2019-01-06T13:56:58.065Z,7.77
2019-01-06T13:59:46.591Z,10.37
2019-01-06T14:02:35.220Z,12.70
2019-01-06T14:05:23.807Z,26.90
2019-01-06T14:08:12.428Z,13.50
2019-01-06T14:11:01.337Z,13.50
2019-01-06T14:13:46.860Z,51.30
2019-01-06T14:16:55.512Z,35.50
2019-01-06T14:19:48.303Z,16.90
2019-01-06T14:22:41.108Z,43.13
2019-01-06T14:25:40.292Z,24.60
2019-01-06T14:28:28.949Z,24.63
2019-01-06T14:31:19.015Z,22.40
2019-01-06T14:34:09.028Z,17.53
2019-01-06T14:36:58.748Z,16.83
2019-01-06T14:40:01.580Z,16.67
2019-01-06T14:42:54.177Z,11.60
2019-01-06T14:45:52.819Z,13.33
2019-01-06T14:48:41.025Z,15.43
2019-01-06T14:51:43.587Z,15.13
2019-01-06T14:54:32.329Z,13.07
2019-01-06T14:57:37.238Z,10.90
2019-01-06T15:00:30.207Z,17.80
2019-01-06T15:03:22.789Z,11.53
2019-01-06T15:06:12.796Z,14.87
2019-01-06T15:09:08.536Z,23.03
2019-01-06T15:11:56.533Z,23.97
2019-01-06T15:14:45.376Z,19.77
2019-01-06T15:17:33.851Z,22.13
2019-01-06T15:20:23.985Z,20.53
2019-01-06T15:23:25.878Z,24.10
2019-01-06T15:26:15.962Z,25.73
2019-01-06T15:29:08.918Z,25.37
2019-01-06T15:32:07.834Z,33.47
2019-01-06T15:34:58.063Z,34.00
2019-01-06T15:37:51.607Z,22.60
2019-01-06T15:40:41.109Z,24.50
2019-01-06T15:43:44.554Z,27.23
2019-01-06T15:46:43.382Z,27.10
2019-01-06T15:49:42.004Z,31.57
2019-01-06T15:52:34.877Z,24.80
2019-01-06T15:55:23.594Z,30.57
2019-01-06T15:58:13.335Z,34.70
2019-01-06T16:01:03.578Z,36.30
2019-01-06T16:03:59.399Z,23.67
2019-01-06T16:07:04.471Z,23.23
2019-01-06T16:09:54.431Z,23.40
2019-01-06T16:12:43.012Z,21.80
2019-01-06T16:15:32.922Z,24.30
2019-01-06T16:18:22.101Z,25.10
2019-01-06T16:21:27.545Z,24.57
2019-01-06T16:24:32.273Z,36.53
2019-01-06T16:27:15.640Z,24.43
2019-01-06T16:30:08.720Z,33.83
2019-01-06T16:33:08.711Z,27.53
2019-01-06T16:35:58.458Z,20.73
2019-01-06T16:38:54.286Z,16.60
2019-01-06T16:41:59.650Z,21.43
2019-01-06T16:45:04.568Z,20.40
2019-01-06T16:47:53.821Z,20.30
2019-01-06T16:50:52.697Z,19.53
2019-01-06T16:53:41.769Z,20.20
2019-01-06T16:56:31.956Z,20.10
2019-01-06T16:59:20.832Z,20.97
2019-01-06T17:02:09.619Z,32.30
2019-01-06T17:04:58.522Z,23.77
2019-01-06T17:07:46.934Z,26.77
2019-01-06T17:10:36.969Z,27.27
2019-01-06T17:13:25.327Z,20.00
2019-01-06T17:16:14.015Z,26.93
2019-01-06T17:19:09.681Z,56.63
2019-01-06T17:22:18.839Z,48.33
2019-01-06T17:25:11.275Z,48.50
2019-01-06T17:28:08.686Z,40.30
2019-01-06T17:30:51.530Z,26.60
2019-01-06T17:33:35.731Z,24.67
2019-01-06T17:36:24.526Z,21.60
2019-01-06T17:39:22.837Z,24.10
2019-01-06T17:42:31.322Z,33.57
2019-01-06T17:45:21.457Z,33.60
2019-01-06T17:48:26.655Z,32.57
2019-01-06T17:51:16.893Z,42.23
2019-01-06T17:54:10.185Z,35.93
2019-01-06T17:57:02.008Z,39.07
2019-01-06T17:59:50.889Z,70.67
2019-01-06T18:02:43.758Z,75.80
2019-01-06T18:05:32.870Z,54.27
2019-01-06T18:08:22.886Z,73.10
2019-01-06T18:14:26.301Z,62.87
2019-01-06T18:17:22.445Z,88.60
2019-01-06T18:20:15.706Z,81.77
2019-01-06T18:23:23.902Z,58.13
2019-01-06T18:26:26.829Z,59.80
2019-01-06T18:29:16.705Z,96.57
2019-01-06T18:32:05.457Z,69.40
2019-01-06T18:34:58.108Z,64.60
2019-01-06T18:37:50.587Z,76.73
2019-01-06T18:40:40.416Z,79.20
2019-01-06T18:43:29.610Z,80.13
2019-01-06T18:46:31.484Z,62.73
2019-01-06T18:49:19.493Z,61.80
2019-01-06T18:52:08.104Z,55.67
2019-01-06T18:55:07.116Z,53.40
2019-01-06T18:57:57.319Z,58.93
2019-01-06T19:00:47.246Z,57.50
2019-01-06T19:03:37.003Z,60.23
2019-01-06T19:06:25.778Z,51.67
2019-01-06T19:09:05.321Z,51.90
2019-01-06T19:11:55.912Z,57.83
2019-01-06T19:14:45.204Z,40.90
2019-01-06T19:17:44.514Z,43.37
2019-01-06T19:20:38.112Z,32.73
2019-01-06T19:23:28.225Z,34.67
2019-01-06T19:26:16.812Z,34.43
2019-01-06T19:29:23.918Z,40.97
2019-01-06T19:32:27.570Z,32.63
2019-01-06T19:35:11.409Z,31.63
2019-01-06T19:38:20.239Z,30.20
2019-01-06T19:41:24.019Z,32.80
2019-01-06T19:44:26.322Z,28.03
2019-01-06T19:47:17.222Z,25.53
2019-01-06T19:50:14.691Z,34.00
2019-01-06T19:53:09.912Z,43.70
2019-01-06T19:56:12.459Z,39.67
2019-01-06T19:59:02.574Z,34.73
2019-01-06T20:01:47.210Z,41.27
2019-01-06T20:04:35.765Z,40.10
2019-01-06T20:07:34.757Z,43.03
2019-01-06T20:10:34.546Z,42.43
2019-01-06T20:13:28.296Z,47.00
2019-01-06T20:16:12.493Z,42.77
2019-01-06T20:19:13.328Z,48.80
2019-01-06T20:22:17.183Z,47.67
2019-01-06T20:25:06.018Z,34.93
2019-01-06T20:27:55.067Z,40.07
2019-01-06T20:30:56.671Z,28.30
2019-01-06T20:34:02.036Z,28.20
2019-01-06T20:36:54.593Z,29.30
2019-01-06T20:39:56.626Z,30.00
2019-01-06T20:43:04.978Z,27.77
2019-01-06T20:46:07.069Z,26.00
2019-01-06T20:48:55.657Z,27.70
2019-01-06T20:51:43.991Z,28.83
2019-01-06T20:54:32.608Z,27.87
2019-01-06T20:57:21.135Z,27.50
2019-01-06T21:00:19.610Z,32.50
2019-01-06T21:03:02.884Z,32.77
2019-01-06T21:05:56.825Z,33.47
2019-01-06T21:08:54.463Z,31.90
2019-01-06T21:11:42.764Z,32.73
2019-01-06T21:14:34.080Z,31.60
2019-01-06T21:20:45.479Z,32.67
2019-01-06T21:23:41.777Z,34.93
2019-01-06T21:26:42.799Z,31.80
2019-01-06T21:29:40.886Z,36.43
2019-01-06T21:32:29.381Z,34.50
2019-01-06T21:35:34.264Z,29.53
2019-01-06T21:38:14.949Z,30.53
2019-01-06T21:41:03.375Z,25.57
2019-01-06T21:44:05.575Z,25.93
2019-01-06T21:47:03.018Z,25.90
2019-01-06T21:50:03.805Z,23.27
2019-01-06T21:53:28.020Z,24.50
2019-01-06T21:56:49.606Z,20.20
2019-01-06T22:00:49.724Z,21.10
2019-01-06T22:04:00.097Z,18.07
2019-01-06T22:07:07.949Z,17.33
2019-01-06T22:10:14.990Z,17.60
2019-01-06T22:13:40.843Z,16.57
2019-01-06T22:16:57.775Z,18.17
2019-01-06T22:20:12.754Z,21.10
2019-01-06T22:23:10.000Z,20.27
2019-01-06T22:26:10.408Z,22.43
2019-01-06T22:29:05.918Z,22.27
2019-01-06T22:32:11.911Z,24.37
2019-01-06T22:35:01.810Z,21.87
2019-01-06T22:37:50.670Z,24.20
2019-01-06T22:40:39.574Z,22.13
2019-01-06T22:43:29.674Z,21.83
2019-01-06T22:46:21.684Z,18.57
2019-01-06T22:49:10.731Z,17.10
2019-01-06T22:52:18.919Z,20.83
2019-01-06T22:55:27.124Z,18.20
2019-01-06T22:58:15.940Z,20.23
2019-01-06T23:01:05.229Z,18.27
2019-01-06T23:04:10.724Z,16.83
2019-01-06T23:07:00.982Z,17.07
2019-01-06T23:09:49.810Z,17.87
2019-01-06T23:12:42.467Z,13.60
2019-01-06T23:15:38.608Z,17.83
2019-01-06T23:18:34.621Z,10.40
2019-01-06T23:21:24.177Z,16.43
2019-01-06T23:24:26.664Z,13.37
2019-01-06T23:27:19.982Z,14.67
2019-01-06T23:30:10.062Z,15.77
2019-01-06T23:33:08.774Z,16.47
2019-01-06T23:35:57.303Z,12.07
2019-01-06T23:39:05.152Z,14.63
2019-01-06T23:42:11.806Z,14.33
2019-01-06T23:45:07.851Z,12.83
2019-01-06T23:48:16.156Z,12.13
2019-01-06T23:51:00.680Z,13.30
2019-01-06T23:53:52.313Z,13.30
2019-01-06T23:56:48.316Z,12.43
2019-01-06T23:59:37.887Z,12.80
